Time;durP1;ratioP1;P1;durP2;ratioP2;P2;SDS_P1;SDS_P2;PMS_P1;PMS_P2;Temp;Humidity;BMP_temperature;BMP_pressure;BME280_temperature;BME280_humidity;BME280_pressure;Samples;Min_cycle;Max_cycle;Signal;HPM_P1;HPM_P2
2022/07/10 00:00:00;;;;;;;;;5.00;4.00;;;;;;;;5054889;28;51334;-67
2022/07/10 00:02:25;;;;;;;;;4.00;4.00;;;;;;;;5052586;28;51183;-69
2022/07/10 00:04:50;;;;;;;;;4.67;4.00;;;;;;;;5053483;27;51384;-68
2022/07/10 00:07:15;;;;;;;;;4.00;4.00;;;;;;;;5056215;28;53584;-67
2022/07/10 00:09:40;;;;;;;;;3.33;3.00;;;;;;;;5057219;28;51074;-68
2022/07/10 00:12:06;;;;;;;;;3.33;3.33;;;;;;;;5053892;28;51240;-69
2022/07/10 00:14:31;;;;;;;;;3.00;3.00;;;;;;;;5055137;28;51325;-68
2022/07/10 00:16:56;;;;;;;;;3.33;3.33;;;;;;;;5053479;28;51949;-69
2022/07/10 00:19:21;;;;;;;;;3.67;3.67;;;;;;;;5055796;28;51004;-68
2022/07/10 00:21:47;;;;;;;;;3.33;3.00;;;;;;;;5053239;28;51300;-67
2022/07/10 00:24:12;;;;;;;;;2.00;2.00;;;;;;;;5054842;28;51348;-67
2022/07/10 00:26:37;;;;;;;;;3.33;3.33;;;;;;;;5052068;28;51712;-68
2022/07/10 00:29:02;;;;;;;;;3.33;3.00;;;;;;;;5054081;28;51081;-68
2022/07/10 00:31:28;;;;;;;;;4.33;4.33;;;;;;;;5037219;28;51154;-69
2022/07/10 00:33:53;;;;;;;;;3.67;3.67;;;;;;;;5055244;28;51185;-67
2022/07/10 00:36:18;;;;;;;;;2.33;2.33;;;;;;;;5052389;28;51775;-69
2022/07/10 00:38:43;;;;;;;;;2.33;2.33;;;;;;;;5053382;28;51139;-67
2022/07/10 00:41:09;;;;;;;;;4.33;4.00;;;;;;;;5054952;28;51152;-67
2022/07/10 00:43:53;;;;;;;;;5.00;4.67;;;;;;;;5057374;28;51243;-68
2022/07/10 00:46:21;;;;;;;;;4.67;4.33;;;;;;;;5056335;28;52825;-68
2022/07/10 00:48:47;;;;;;;;;4.33;4.33;;;;;;;;5059783;27;51125;-68
2022/07/10 00:51:13;;;;;;;;;3.00;3.00;;;;;;;;5051454;28;51188;-68
2022/07/10 00:53:39;;;;;;;;;2.67;2.67;;;;;;;;5057562;28;51857;-69
2022/07/10 00:56:05;;;;;;;;;4.67;2.67;;;;;;;;5054970;28;51935;-68
2022/07/10 00:58:30;;;;;;;;;5.33;4.33;;;;;;;;5059297;28;51896;-68
2022/07/10 01:00:56;;;;;;;;;4.33;3.67;;;;;;;;5054314;28;51155;-66
2022/07/10 01:03:21;;;;;;;;;4.67;4.00;;;;;;;;5053198;28;52075;-64
2022/07/10 01:05:46;;;;;;;;;3.33;2.67;;;;;;;;5055106;28;51091;-67
2022/07/10 01:08:12;;;;;;;;;5.00;5.00;;;;;;;;5054990;28;51179;-68
2022/07/10 01:10:37;;;;;;;;;6.00;4.00;;;;;;;;5053694;28;51212;-67
2022/07/10 01:13:02;;;;;;;;;5.33;5.00;;;;;;;;5037834;28;51284;-66
2022/07/10 01:15:28;;;;;;;;;4.67;4.33;;;;;;;;5053229;28;52012;-68
2022/07/10 01:17:53;;;;;;;;;5.00;3.67;;;;;;;;5054252;28;51240;-68
2022/07/10 01:20:18;;;;;;;;;3.67;3.67;;;;;;;;5052073;28;51679;-67
2022/07/10 01:22:44;;;;;;;;;3.67;3.67;;;;;;;;5054462;28;51159;-67
2022/07/10 01:25:10;;;;;;;;;4.00;4.00;;;;;;;;5052406;27;51672;-67
2022/07/10 01:27:36;;;;;;;;;6.67;5.33;;;;;;;;5053366;28;52003;-66
2022/07/10 01:30:01;;;;;;;;;4.00;4.00;;;;;;;;5053741;28;52094;-67
2022/07/10 01:32:27;;;;;;;;;5.33;5.33;;;;;;;;5053334;28;51294;-68
2022/07/10 01:34:52;;;;;;;;;4.33;4.33;;;;;;;;5054010;28;52404;-67
2022/07/10 01:37:17;;;;;;;;;4.00;4.00;;;;;;;;5054369;28;51255;-68
2022/07/10 01:39:42;;;;;;;;;4.33;4.33;;;;;;;;5052688;28;51942;-68
2022/07/10 01:42:08;;;;;;;;;5.00;5.00;;;;;;;;5052346;27;51269;-67
2022/07/10 01:44:33;;;;;;;;;4.67;4.67;;;;;;;;5051926;27;51538;-67
2022/07/10 01:46:58;;;;;;;;;5.67;5.00;;;;;;;;5052603;27;51898;-67
2022/07/10 01:49:23;;;;;;;;;5.67;5.33;;;;;;;;5053793;28;51095;-68
2022/07/10 01:51:48;;;;;;;;;5.00;4.33;;;;;;;;5052497;28;51908;-67
2022/07/10 01:54:14;;;;;;;;;4.33;4.33;;;;;;;;5054638;28;52482;-66
2022/07/10 01:56:39;;;;;;;;;5.00;5.00;;;;;;;;5034466;28;51192;-67
2022/07/10 01:59:05;;;;;;;;;5.00;5.00;;;;;;;;5053657;28;51963;-67
2022/07/10 02:01:31;;;;;;;;;4.00;4.00;;;;;;;;5055426;28;51192;-67
2022/07/10 02:06:40;;;;;;;;;6.67;6.00;;;;;;;;5052196;28;51230;-67
2022/07/10 02:09:05;;;;;;;;;5.33;5.00;;;;;;;;5055380;28;51549;-67
2022/07/10 02:11:30;;;;;;;;;5.33;4.00;;;;;;;;5053876;28;51213;-69
2022/07/10 02:13:55;;;;;;;;;4.00;4.00;;;;;;;;5049843;28;52137;-67
2022/07/10 02:16:20;;;;;;;;;5.00;4.33;;;;;;;;5033383;28;51327;-67
2022/07/10 02:18:45;;;;;;;;;4.67;4.67;;;;;;;;5052259;28;50916;-68
2022/07/10 02:21:11;;;;;;;;;6.00;6.00;;;;;;;;5052038;28;51396;-67
2022/07/10 02:23:36;;;;;;;;;5.33;5.00;;;;;;;;5037748;28;52101;-67
2022/07/10 02:26:01;;;;;;;;;4.00;4.00;;;;;;;;5050353;28;50994;-68
2022/07/10 02:28:27;;;;;;;;;6.00;5.75;;;;;;;;5061386;28;51093;-67
2022/07/10 02:30:52;;;;;;;;;5.00;5.00;;;;;;;;5056457;28;51462;-69
2022/07/10 02:33:17;;;;;;;;;4.33;4.33;;;;;;;;5055885;28;51883;-68
2022/07/10 02:35:42;;;;;;;;;6.33;6.33;;;;;;;;5057218;28;51101;-68
2022/07/10 02:38:08;;;;;;;;;5.00;4.67;;;;;;;;5051018;28;51364;-68
2022/07/10 02:40:33;;;;;;;;;4.00;4.00;;;;;;;;5062221;28;51072;-67
2022/07/10 02:42:58;;;;;;;;;4.00;4.00;;;;;;;;5052673;28;51704;-68
2022/07/10 02:45:23;;;;;;;;;5.00;5.00;;;;;;;;5056398;28;51385;-69
2022/07/10 02:47:48;;;;;;;;;5.00;5.00;;;;;;;;5050565;28;51106;-68
2022/07/10 02:50:14;;;;;;;;;5.00;5.00;;;;;;;;5040449;28;51053;-68
2022/07/10 02:52:39;;;;;;;;;5.33;5.00;;;;;;;;5065306;28;51171;-69
2022/07/10 02:55:04;;;;;;;;;4.00;4.00;;;;;;;;5055332;28;51152;-69
2022/07/10 02:57:30;;;;;;;;;5.00;5.00;;;;;;;;5032871;28;51219;-67
2022/07/10 02:59:55;;;;;;;;;5.00;4.33;;;;;;;;5060157;28;50906;-71
2022/07/10 03:02:20;;;;;;;;;5.67;5.00;;;;;;;;5054802;28;51936;-69
2022/07/10 03:04:45;;;;;;;;;4.67;4.67;;;;;;;;5064034;28;51049;-68
2022/07/10 03:07:11;;;;;;;;;7.00;6.00;;;;;;;;5058217;28;51155;-69
2022/07/10 03:09:36;;;;;;;;;5.67;5.00;;;;;;;;5064619;28;51164;-68
2022/07/10 03:12:01;;;;;;;;;6.00;6.00;;;;;;;;5057252;28;52466;-68
2022/07/10 03:14:26;;;;;;;;;6.00;6.00;;;;;;;;5049115;28;51298;-67
2022/07/10 03:16:52;;;;;;;;;5.00;5.00;;;;;;;;5056549;28;51778;-67
2022/07/10 03:19:17;;;;;;;;;5.00;5.00;;;;;;;;5057938;28;51278;-69
2022/07/10 03:21:42;;;;;;;;;4.67;4.00;;;;;;;;5052010;28;51350;-68
2022/07/10 03:24:07;;;;;;;;;5.33;5.33;;;;;;;;5052241;28;51030;-67
2022/07/10 03:26:32;;;;;;;;;5.00;5.00;;;;;;;;5049951;28;51188;-68
2022/07/10 03:28:58;;;;;;;;;5.67;5.67;;;;;;;;5054544;28;51498;-68
2022/07/10 03:31:23;;;;;;;;;4.00;4.00;;;;;;;;5061121;28;52145;-66
2022/07/10 03:33:48;;;;;;;;;5.67;5.67;;;;;;;;5057567;28;51118;-67
2022/07/10 03:36:14;;;;;;;;;4.67;4.67;;;;;;;;5048390;28;51037;-66
2022/07/10 03:38:39;;;;;;;;;5.33;5.33;;;;;;;;5051077;28;51890;-66
2022/07/10 03:41:04;;;;;;;;;5.00;5.00;;;;;;;;5054360;28;50917;-66
2022/07/10 03:43:29;;;;;;;;;6.67;5.00;;;;;;;;5058596;28;51275;-67
2022/07/10 03:45:56;;;;;;;;;5.00;5.00;;;;;;;;5055817;27;51215;-66
2022/07/10 03:48:21;;;;;;;;;6.50;6.00;;;;;;;;5053714;28;51256;-67
2022/07/10 03:50:49;;;;;;;;;6.67;4.67;;;;;;;;5051946;28;51994;-67
2022/07/10 03:53:14;;;;;;;;;4.33;4.33;;;;;;;;5054507;28;51082;-67
2022/07/10 03:55:39;;;;;;;;;6.00;6.00;;;;;;;;5053530;28;51228;-68
2022/07/10 03:58:05;;;;;;;;;5.67;5.67;;;;;;;;5055764;28;51097;-66
2022/07/10 04:00:34;;;;;;;;;6.00;5.00;;;;;;;;5048903;28;51873;-67
2022/07/10 04:03:04;;;;;;;;;4.00;4.00;;;;;;;;5051150;28;51244;-67
2022/07/10 04:05:29;;;;;;;;;7.25;6.00;;;;;;;;5050749;28;51241;-67
2022/07/10 04:07:56;;;;;;;;;6.00;5.33;;;;;;;;5061885;28;51214;-67
2022/07/10 04:10:22;;;;;;;;;6.00;6.00;;;;;;;;5062250;28;52818;-66
2022/07/10 04:12:48;;;;;;;;;6.00;5.33;;;;;;;;5054314;28;51240;-67
2022/07/10 04:15:13;;;;;;;;;6.67;6.00;;;;;;;;5054271;28;51209;-66
2022/07/10 04:17:38;;;;;;;;;5.67;5.33;;;;;;;;5053511;28;51208;-67
2022/07/10 04:20:04;;;;;;;;;5.00;5.00;;;;;;;;5061251;28;52639;-67
2022/07/10 04:22:29;;;;;;;;;6.33;5.33;;;;;;;;5055633;28;51070;-66
2022/07/10 04:24:54;;;;;;;;;6.00;6.00;;;;;;;;5059594;28;50987;-67
2022/07/10 04:27:20;;;;;;;;;5.00;5.00;;;;;;;;5056176;28;51181;-66
2022/07/10 04:29:46;;;;;;;;;5.00;4.00;;;;;;;;5050536;28;52331;-67
2022/07/10 04:32:11;;;;;;;;;6.25;5.00;;;;;;;;5061090;28;51113;-67
2022/07/10 04:34:36;;;;;;;;;5.00;4.33;;;;;;;;5062989;28;51248;-66
2022/07/10 04:37:02;;;;;;;;;10.50;9.50;;;;;;;;5059190;28;51428;-66
2022/07/10 04:39:27;;;;;;;;;5.50;5.00;;;;;;;;5052319;28;51715;-66
2022/07/10 04:41:52;;;;;;;;;5.25;4.75;;;;;;;;5055334;28;51504;-66
2022/07/10 04:44:18;;;;;;;;;5.67;5.67;;;;;;;;5061739;28;51075;-66
2022/07/10 04:46:43;;;;;;;;;4.00;4.00;;;;;;;;5051524;28;51280;-67
2022/07/10 04:49:09;;;;;;;;;7.00;5.33;;;;;;;;5051838;28;51488;-67
2022/07/10 04:51:34;;;;;;;;;6.00;6.00;;;;;;;;5043297;28;51041;-66
2022/07/10 04:53:59;;;;;;;;;8.00;8.00;;;;;;;;5060403;28;51154;-67
2022/07/10 04:56:25;;;;;;;;;5.33;5.00;;;;;;;;5067910;28;51260;-67
2022/07/10 04:58:50;;;;;;;;;5.67;5.67;;;;;;;;5056883;28;52428;-69
2022/07/10 05:01:15;;;;;;;;;4.67;4.67;;;;;;;;5053081;28;51157;-66
2022/07/10 05:03:40;;;;;;;;;7.67;7.00;;;;;;;;5056416;28;51121;-66
2022/07/10 05:06:06;;;;;;;;;5.67;5.33;;;;;;;;5058586;28;51068;-68
2022/07/10 05:08:31;;;;;;;;;6.00;6.00;;;;;;;;5051896;28;51787;-66
2022/07/10 05:10:56;;;;;;;;;5.67;5.67;;;;;;;;5039042;28;51171;-66
2022/07/10 05:13:21;;;;;;;;;6.33;6.00;;;;;;;;5050170;28;51260;-66
2022/07/10 05:15:47;;;;;;;;;5.33;4.67;;;;;;;;5064721;28;51216;-66
2022/07/10 05:18:12;;;;;;;;;4.67;4.00;;;;;;;;5049894;28;51365;-67
2022/07/10 05:20:41;;;;;;;;;6.00;5.67;;;;;;;;5054004;28;51232;-65
2022/07/10 05:23:07;;;;;;;;;5.00;4.00;;;;;;;;5052404;28;51110;-66
2022/07/10 05:25:32;;;;;;;;;8.00;5.00;;;;;;;;5052658;28;51230;-67
2022/07/10 05:27:57;;;;;;;;;3.33;3.33;;;;;;;;5051266;28;51095;-66
2022/07/10 05:30:22;;;;;;;;;5.00;5.00;;;;;;;;5057127;28;51203;-67
2022/07/10 05:32:48;;;;;;;;;4.67;4.67;;;;;;;;5057782;28;51371;-67
2022/07/10 05:35:16;;;;;;;;;6.00;4.67;;;;;;;;5056379;28;51182;-65
2022/07/10 05:37:41;;;;;;;;;5.00;5.00;;;;;;;;5054440;28;53087;-67
2022/07/10 05:40:07;;;;;;;;;3.67;3.00;;;;;;;;5041064;28;51092;-67
2022/07/10 05:42:33;;;;;;;;;4.00;4.00;;;;;;;;5060824;28;51101;-66
2022/07/10 05:44:58;;;;;;;;;6.00;5.00;;;;;;;;5063127;28;51196;-66
2022/07/10 05:47:24;;;;;;;;;4.00;4.00;;;;;;;;5052514;28;51263;-67
2022/07/10 05:49:49;;;;;;;;;3.67;3.67;;;;;;;;5055297;28;51984;-67
2022/07/10 05:52:14;;;;;;;;;5.00;5.00;;;;;;;;5058381;28;51118;-67
2022/07/10 05:54:39;;;;;;;;;3.00;3.00;;;;;;;;5050921;28;52433;-66
2022/07/10 05:57:04;;;;;;;;;4.00;4.00;;;;;;;;5061819;28;51874;-66
2022/07/10 05:59:32;;;;;;;;;4.33;4.33;;;;;;;;5041793;28;50991;-67
2022/07/10 06:01:58;;;;;;;;;5.00;5.00;;;;;;;;5063109;28;51115;-65
2022/07/10 06:04:23;;;;;;;;;4.00;4.00;;;;;;;;5056619;28;51043;-67
2022/07/10 06:06:48;;;;;;;;;5.00;5.00;;;;;;;;5054585;28;51817;-66
2022/07/10 06:09:13;;;;;;;;;4.00;4.00;;;;;;;;5059013;28;51081;-68
2022/07/10 06:11:41;;;;;;;;;4.00;4.00;;;;;;;;5061890;28;51030;-67
2022/07/10 06:14:06;;;;;;;;;4.67;4.00;;;;;;;;5039923;28;54264;-66
2022/07/10 06:16:32;;;;;;;;;0.00;0.00;;;;;;;;5064997;28;51227;-66
2022/07/10 06:18:57;;;;;;;;;4.67;4.00;;;;;;;;5068193;28;51238;-66
2022/07/10 06:21:22;;;;;;;;;4.00;3.33;;;;;;;;5051133;27;51332;-66
2022/07/10 06:23:48;;;;;;;;;5.00;4.67;;;;;;;;5049713;28;51147;-67
2022/07/10 06:26:13;;;;;;;;;6.00;6.00;;;;;;;;5054155;28;51560;-66
2022/07/10 06:28:39;;;;;;;;;3.67;3.67;;;;;;;;5050846;28;51414;-67
2022/07/10 06:31:04;;;;;;;;;5.33;5.00;;;;;;;;5057753;28;51166;-67
2022/07/10 06:33:29;;;;;;;;;4.00;4.00;;;;;;;;5057530;28;51309;-65
2022/07/10 06:35:55;;;;;;;;;3.33;3.33;;;;;;;;5054468;28;51256;-66
2022/07/10 06:38:20;;;;;;;;;3.00;3.00;;;;;;;;5055046;28;51211;-66
2022/07/10 06:40:47;;;;;;;;;5.00;4.67;;;;;;;;5065798;28;51080;-66
2022/07/10 06:43:12;;;;;;;;;4.00;4.00;;;;;;;;5049014;28;51491;-66
2022/07/10 06:45:38;;;;;;;;;3.67;3.67;;;;;;;;5054451;28;51035;-67
2022/07/10 06:48:04;;;;;;;;;4.00;3.00;;;;;;;;5049214;28;51113;-67
2022/07/10 06:50:30;;;;;;;;;4.00;4.00;;;;;;;;5035570;28;51242;-66
2022/07/10 06:52:56;;;;;;;;;4.00;4.00;;;;;;;;5059950;28;51022;-67
2022/07/10 06:55:21;;;;;;;;;4.00;4.00;;;;;;;;5056251;28;51800;-66
2022/07/10 06:57:46;;;;;;;;;3.67;3.67;;;;;;;;5052601;28;51132;-67
2022/07/10 07:00:12;;;;;;;;;6.00;5.00;;;;;;;;5053185;28;51150;-68
2022/07/10 07:02:37;;;;;;;;;3.33;3.33;;;;;;;;5056194;28;51372;-67
2022/07/10 07:05:03;;;;;;;;;2.00;2.00;;;;;;;;5059481;28;51223;-67
2022/07/10 07:07:29;;;;;;;;;3.00;3.00;;;;;;;;5059853;28;51155;-67
2022/07/10 07:09:55;;;;;;;;;2.00;2.00;;;;;;;;5051902;28;51377;-67
2022/07/10 07:12:20;;;;;;;;;3.67;3.67;;;;;;;;5050175;28;51372;-66
2022/07/10 07:14:46;;;;;;;;;5.00;3.00;;;;;;;;5052243;28;51817;-68
2022/07/10 07:17:14;;;;;;;;;2.67;2.00;;;;;;;;5058680;28;51191;-67
2022/07/10 07:25:08;;;;;;;;;1.67;1.67;;;;;;;;5053507;28;51200;-68
2022/07/10 07:27:34;;;;;;;;;3.00;3.00;;;;;;;;5049343;28;51015;-68
2022/07/10 07:30:07;;;;;;;;;2.00;2.00;;;;;;;;5052753;28;52053;-68
2022/07/10 07:32:33;;;;;;;;;2.00;1.67;;;;;;;;5066417;28;51316;-67
2022/07/10 07:34:59;;;;;;;;;3.33;3.00;;;;;;;;5054746;28;51496;-67
2022/07/10 07:37:34;;;;;;;;;1.67;1.67;;;;;;;;5051016;28;51228;-67
2022/07/10 07:39:59;;;;;;;;;2.00;2.00;;;;;;;;5042111;28;51643;-67
2022/07/10 07:42:24;;;;;;;;;3.00;3.00;;;;;;;;5064106;28;51980;-67
2022/07/10 07:44:50;;;;;;;;;2.00;2.00;;;;;;;;5059477;28;52460;-66
2022/07/10 07:47:15;;;;;;;;;3.67;3.00;;;;;;;;5055289;28;52864;-68
2022/07/10 07:49:40;;;;;;;;;3.00;2.00;;;;;;;;5055624;28;51383;-67
2022/07/10 07:52:05;;;;;;;;;3.33;2.67;;;;;;;;5042010;28;51439;-66
2022/07/10 07:54:31;;;;;;;;;2.00;2.00;;;;;;;;5052390;27;51119;-68
2022/07/10 07:56:57;;;;;;;;;3.00;2.00;;;;;;;;5054233;28;50901;-63
2022/07/10 07:59:22;;;;;;;;;3.00;2.33;;;;;;;;5054111;28;51214;-64
2022/07/10 08:01:48;;;;;;;;;2.00;2.00;;;;;;;;5064764;28;51197;-64
2022/07/10 08:04:13;;;;;;;;;0.00;0.00;;;;;;;;5054592;28;51121;-66
2022/07/10 08:06:38;;;;;;;;;1.33;1.33;;;;;;;;5054028;28;52116;-66
2022/07/10 08:09:03;;;;;;;;;1.00;1.00;;;;;;;;5056996;28;51211;-65
2022/07/10 08:11:28;;;;;;;;;1.00;0.67;;;;;;;;5041097;28;52413;-65
2022/07/10 08:13:54;;;;;;;;;1.00;1.00;;;;;;;;5065921;28;53849;-66
2022/07/10 08:16:19;;;;;;;;;1.00;1.00;;;;;;;;5065485;28;51347;-64
2022/07/10 08:18:44;;;;;;;;;2.00;1.00;;;;;;;;5059572;28;51135;-65
2022/07/10 08:21:09;;;;;;;;;0.67;0.67;;;;;;;;5055283;28;50951;-65
2022/07/10 08:23:34;;;;;;;;;2.00;2.00;;;;;;;;5056735;28;51220;-70
2022/07/10 08:26:00;;;;;;;;;1.00;1.00;;;;;;;;5053703;28;51289;-70
2022/07/10 08:28:25;;;;;;;;;2.00;1.00;;;;;;;;5071908;28;51986;-70
2022/07/10 08:30:50;;;;;;;;;2.00;2.00;;;;;;;;5070633;28;51491;-68
2022/07/10 08:33:15;;;;;;;;;1.00;1.00;;;;;;;;5054788;28;50981;-69
2022/07/10 08:35:40;;;;;;;;;1.33;1.33;;;;;;;;5059917;28;51206;-70
2022/07/10 08:38:07;;;;;;;;;2.00;2.00;;;;;;;;5055781;28;50941;-69
2022/07/10 08:40:36;;;;;;;;;1.00;1.00;;;;;;;;5066785;28;50985;-70
2022/07/10 08:43:02;;;;;;;;;1.00;1.00;;;;;;;;5061783;28;51957;-69
2022/07/10 08:45:30;;;;;;;;;3.00;2.00;;;;;;;;5053955;28;51196;-68
2022/07/10 08:47:56;;;;;;;;;1.67;1.67;;;;;;;;5056815;28;51021;-69
2022/07/10 08:50:23;;;;;;;;;2.00;2.00;;;;;;;;5065697;28;51319;-71
2022/07/10 08:52:55;;;;;;;;;2.00;2.00;;;;;;;;5060973;28;52349;-69
2022/07/10 08:55:23;;;;;;;;;2.00;2.00;;;;;;;;5054582;28;50956;-70
2022/07/10 08:57:50;;;;;;;;;0.00;0.00;;;;;;;;5056334;28;51052;-67
2022/07/10 09:00:16;;;;;;;;;2.67;2.00;;;;;;;;5054663;28;51085;-69
2022/07/10 09:02:41;;;;;;;;;3.00;3.00;;;;;;;;5062170;28;51272;-69
2022/07/10 09:05:08;;;;;;;;;2.67;2.67;;;;;;;;5065123;28;51100;-71
2022/07/10 09:07:36;;;;;;;;;1.33;1.33;;;;;;;;5054419;28;51192;-69
2022/07/10 09:10:05;;;;;;;;;2.00;2.00;;;;;;;;5074960;28;51375;-69
2022/07/10 09:12:48;;;;;;;;;2.00;2.00;;;;;;;;5071652;28;52729;-69
2022/07/10 09:15:15;;;;;;;;;2.00;1.67;;;;;;;;5062644;28;51506;-70
2022/07/10 09:17:53;;;;;;;;;2.67;2.00;;;;;;;;5058902;28;51078;-70
2022/07/10 09:20:26;;;;;;;;;2.00;2.00;;;;;;;;5055684;28;51354;-69
2022/07/10 09:22:52;;;;;;;;;3.00;2.67;;;;;;;;5054493;28;51060;-69
2022/07/10 09:25:17;;;;;;;;;3.67;3.33;;;;;;;;5073131;28;50988;-68
2022/07/10 09:27:53;;;;;;;;;2.33;2.00;;;;;;;;5068130;28;51004;-70
2022/07/10 09:30:51;;;;;;;;;2.00;2.00;;;;;;;;5054402;28;50797;-70
2022/07/10 09:33:19;;;;;;;;;2.00;2.00;;;;;;;;5027177;28;52103;-70
2022/07/10 09:38:45;;;;;;;;;3.00;3.00;;;;;;;;5066359;28;51019;-70
2022/07/10 09:41:14;;;;;;;;;3.00;3.00;;;;;;;;5053305;28;50928;-70
2022/07/10 09:43:47;;;;;;;;;3.33;2.67;;;;;;;;5051780;28;52120;-70
2022/07/10 09:46:12;;;;;;;;;3.00;2.00;;;;;;;;5053096;28;50988;-70
2022/07/10 09:48:37;;;;;;;;;4.00;3.33;;;;;;;;5056207;28;51346;-69
2022/07/10 09:51:04;;;;;;;;;2.00;2.00;;;;;;;;5064924;28;51270;-68
2022/07/10 09:53:30;;;;;;;;;2.67;2.00;;;;;;;;5028456;28;52960;-68
2022/07/10 09:55:56;;;;;;;;;2.00;2.00;;;;;;;;5064335;28;51159;-69
2022/07/10 09:58:24;;;;;;;;;1.00;1.00;;;;;;;;5070787;28;50938;-69
2022/07/10 10:00:50;;;;;;;;;2.33;2.33;;;;;;;;5065305;28;51073;-67
2022/07/10 10:03:17;;;;;;;;;2.00;2.00;;;;;;;;5067420;28;52492;-69
2022/07/10 10:05:44;;;;;;;;;2.33;1.67;;;;;;;;5042710;28;50998;-67
2022/07/10 10:08:09;;;;;;;;;2.00;2.00;;;;;;;;5055403;28;51168;-69
2022/07/10 10:10:36;;;;;;;;;3.00;3.00;;;;;;;;5070406;28;51379;-69
2022/07/10 10:13:03;;;;;;;;;3.33;3.00;;;;;;;;5056900;28;51138;-69
2022/07/10 10:15:30;;;;;;;;;2.67;2.67;;;;;;;;5055928;28;51116;-69
2022/07/10 10:17:55;;;;;;;;;2.00;2.00;;;;;;;;5065376;28;51302;-69
2022/07/10 10:23:05;;;;;;;;;2.67;2.00;;;;;;;;5058913;27;51234;-69
2022/07/10 10:25:32;;;;;;;;;2.33;2.33;;;;;;;;5069458;28;51074;-70
2022/07/10 10:27:59;;;;;;;;;0.33;0.33;;;;;;;;5059312;28;51265;-70
2022/07/10 10:30:24;;;;;;;;;1.00;1.00;;;;;;;;5059121;28;53064;-70
2022/07/10 10:32:49;;;;;;;;;1.00;1.00;;;;;;;;5051882;28;52238;-71
2022/07/10 10:35:35;;;;;;;;;1.67;1.67;;;;;;;;5051449;28;51071;-71
2022/07/10 10:38:00;;;;;;;;;3.67;3.00;;;;;;;;5056116;28;51154;-70
2022/07/10 10:40:32;;;;;;;;;1.67;1.67;;;;;;;;5055904;28;51067;-67
2022/07/10 10:43:17;;;;;;;;;2.00;2.00;;;;;;;;5055541;28;53076;-68
2022/07/10 10:45:43;;;;;;;;;1.33;1.33;;;;;;;;5061047;28;51009;-68
2022/07/10 10:48:08;;;;;;;;;0.00;0.00;;;;;;;;5052052;28;51329;-72
2022/07/10 10:50:38;;;;;;;;;2.00;2.00;;;;;;;;5052641;28;51663;-71
2022/07/10 10:53:03;;;;;;;;;2.00;2.00;;;;;;;;5059663;28;51212;-69
2022/07/10 10:55:28;;;;;;;;;3.00;3.00;;;;;;;;5059268;27;51365;-70
2022/07/10 10:58:11;;;;;;;;;3.00;2.67;;;;;;;;5055500;28;51219;-70
2022/07/10 11:00:41;;;;;;;;;1.00;1.00;;;;;;;;5056881;28;51020;-69
2022/07/10 11:03:16;;;;;;;;;5.00;5.00;;;;;;;;5056496;28;51189;-71
2022/07/10 11:05:43;;;;;;;;;4.00;4.00;;;;;;;;5051378;28;50972;-70
2022/07/10 11:08:08;;;;;;;;;2.00;1.67;;;;;;;;5050455;28;51452;-70
2022/07/10 11:10:39;;;;;;;;;2.00;2.00;;;;;;;;5051206;28;51141;-70
2022/07/10 11:13:12;;;;;;;;;2.00;2.00;;;;;;;;5050743;28;51746;-70
2022/07/10 11:15:38;;;;;;;;;2.67;1.33;;;;;;;;5058796;28;51080;-70
2022/07/10 11:18:05;;;;;;;;;0.00;0.00;;;;;;;;5054085;28;50879;-69
2022/07/10 11:20:35;;;;;;;;;2.00;2.00;;;;;;;;5051608;28;50948;-70
2022/07/10 11:23:00;;;;;;;;;1.00;1.00;;;;;;;;5050776;28;51957;-69
2022/07/10 11:25:42;;;;;;;;;1.00;1.00;;;;;;;;5048928;28;51054;-69
2022/07/10 11:28:09;;;;;;;;;1.00;1.00;;;;;;;;5059314;28;50921;-69
2022/07/10 11:30:43;;;;;;;;;1.33;1.33;;;;;;;;5051264;28;51299;-70
2022/07/10 11:33:08;;;;;;;;;3.00;3.00;;;;;;;;5051214;28;52052;-68
2022/07/10 11:35:34;;;;;;;;;2.00;1.33;;;;;;;;5050710;28;51048;-68
2022/07/10 11:37:59;;;;;;;;;3.00;3.00;;;;;;;;5066754;28;51244;-68
2022/07/10 11:40:25;;;;;;;;;2.67;2.33;;;;;;;;5071800;28;51051;-70
2022/07/10 11:42:54;;;;;;;;;1.33;1.33;;;;;;;;5070125;28;51153;-69
2022/07/10 11:45:27;;;;;;;;;2.33;2.00;;;;;;;;5057034;28;51110;-70
2022/07/10 11:47:53;;;;;;;;;2.00;2.00;;;;;;;;5056993;28;51080;-69
2022/07/10 11:50:18;;;;;;;;;1.00;1.00;;;;;;;;5053048;28;50916;-69
2022/07/10 11:52:45;;;;;;;;;2.00;2.00;;;;;;;;5068906;28;51206;-70
2022/07/10 11:55:21;;;;;;;;;2.67;2.00;;;;;;;;5071269;28;50982;-68
2022/07/10 11:57:49;;;;;;;;;2.00;2.00;;;;;;;;5033422;28;51112;-69
2022/07/10 12:00:24;;;;;;;;;2.00;2.00;;;;;;;;5052300;28;50951;-70
2022/07/10 12:02:51;;;;;;;;;0.33;0.33;;;;;;;;5055028;28;51209;-69
2022/07/10 12:05:35;;;;;;;;;3.33;3.33;;;;;;;;5032717;28;50988;-69
2022/07/10 12:08:01;;;;;;;;;2.67;2.67;;;;;;;;5033068;28;51150;-68
2022/07/10 12:10:27;;;;;;;;;4.67;4.00;;;;;;;;5050719;28;51234;-68
2022/07/10 12:12:52;;;;;;;;;3.00;3.00;;;;;;;;5050529;28;53089;-68
2022/07/10 12:15:33;;;;;;;;;1.00;1.00;;;;;;;;5070961;28;51218;-70
2022/07/10 12:17:58;;;;;;;;;3.33;2.33;;;;;;;;5050566;28;51087;-69
2022/07/10 12:20:24;;;;;;;;;2.33;2.33;;;;;;;;5062896;28;50982;-68
2022/07/10 12:22:49;;;;;;;;;2.00;2.00;;;;;;;;5066184;28;51263;-69
2022/07/10 12:25:15;;;;;;;;;1.33;1.33;;;;;;;;5051049;28;50941;-69
2022/07/10 12:27:41;;;;;;;;;1.33;1.33;;;;;;;;5050811;28;51339;-69
2022/07/10 12:30:06;;;;;;;;;3.33;2.67;;;;;;;;5060867;28;51478;-69
2022/07/10 12:32:31;;;;;;;;;1.00;1.00;;;;;;;;5050275;28;51175;-69
2022/07/10 12:34:58;;;;;;;;;1.67;1.33;;;;;;;;5066464;28;51064;-69
2022/07/10 12:37:23;;;;;;;;;2.00;2.00;;;;;;;;5074210;28;50841;-69
2022/07/10 12:39:52;;;;;;;;;3.00;3.00;;;;;;;;5059894;28;51107;-69
2022/07/10 12:42:27;;;;;;;;;2.00;2.00;;;;;;;;5053637;28;52613;-69
2022/07/10 12:44:52;;;;;;;;;2.00;2.00;;;;;;;;5053906;28;51168;-68
2022/07/10 12:47:19;;;;;;;;;2.00;2.00;;;;;;;;5053741;28;51085;-69
2022/07/10 12:50:01;;;;;;;;;2.00;2.00;;;;;;;;5060365;28;51160;-68
2022/07/10 12:52:28;;;;;;;;;3.00;3.00;;;;;;;;5055222;28;52291;-69
2022/07/10 12:55:16;;;;;;;;;1.00;1.00;;;;;;;;5053334;28;51085;-68
2022/07/10 12:58:08;;;;;;;;;2.00;2.00;;;;;;;;5057688;28;51044;-68
2022/07/10 13:00:34;;;;;;;;;1.00;1.00;;;;;;;;5068112;28;51131;-68
2022/07/10 13:03:06;;;;;;;;;1.67;1.67;;;;;;;;5056289;28;51643;-69
2022/07/10 13:05:35;;;;;;;;;2.00;2.00;;;;;;;;5053456;28;50940;-69
2022/07/10 13:08:22;;;;;;;;;2.33;2.33;;;;;;;;5047547;28;51192;-67
2022/07/10 13:10:52;;;;;;;;;2.33;2.00;;;;;;;;5054785;28;51330;-69
2022/07/10 13:13:17;;;;;;;;;2.67;2.00;;;;;;;;5051190;28;51072;-68
2022/07/10 13:15:56;;;;;;;;;2.00;2.00;;;;;;;;5058684;28;50883;-68
2022/07/10 13:18:25;;;;;;;;;1.00;1.00;;;;;;;;5053254;28;51201;-68
2022/07/10 13:20:52;;;;;;;;;2.00;2.00;;;;;;;;5058138;28;51115;-66
2022/07/10 13:23:22;;;;;;;;;2.00;2.00;;;;;;;;5071602;28;52043;-66
2022/07/10 13:25:54;;;;;;;;;2.00;2.00;;;;;;;;5054528;28;51121;-69
2022/07/10 13:28:19;;;;;;;;;2.33;2.33;;;;;;;;5057885;28;51087;-69
2022/07/10 13:30:44;;;;;;;;;1.67;1.67;;;;;;;;5057441;28;50959;-70
2022/07/10 13:33:09;;;;;;;;;2.33;2.33;;;;;;;;5057235;28;51747;-70
2022/07/10 13:35:35;;;;;;;;;2.00;2.00;;;;;;;;5036588;28;51189;-68
2022/07/10 13:38:02;;;;;;;;;5.67;3.67;;;;;;;;5059172;27;51244;-67
2022/07/10 13:40:28;;;;;;;;;3.00;3.00;;;;;;;;5066110;28;51041;-68
2022/07/10 13:42:53;;;;;;;;;1.00;1.00;;;;;;;;5060813;28;51812;-68
2022/07/10 13:45:19;;;;;;;;;3.00;3.00;;;;;;;;5056979;28;51079;-69
2022/07/10 13:47:44;;;;;;;;;3.67;2.33;;;;;;;;5065634;28;51703;-68
2022/07/10 13:50:09;;;;;;;;;3.67;3.00;;;;;;;;5056740;28;51104;-68
2022/07/10 13:52:34;;;;;;;;;3.00;2.00;;;;;;;;5056659;28;52030;-69
2022/07/10 13:55:00;;;;;;;;;2.00;1.67;;;;;;;;5055916;28;51145;-70
2022/07/10 13:57:26;;;;;;;;;3.00;3.00;;;;;;;;5057767;28;51326;-68
2022/07/10 13:59:52;;;;;;;;;1.33;1.33;;;;;;;;5056198;28;51063;-68
2022/07/10 14:02:17;;;;;;;;;2.00;2.00;;;;;;;;5064395;28;50969;-69
2022/07/10 14:04:42;;;;;;;;;1.00;1.00;;;;;;;;5056209;28;51068;-70
2022/07/10 14:07:08;;;;;;;;;3.00;3.00;;;;;;;;5052683;28;51187;-67
2022/07/10 14:09:33;;;;;;;;;1.00;1.00;;;;;;;;5060505;27;51224;-68
2022/07/10 14:11:58;;;;;;;;;3.00;3.00;;;;;;;;5054664;28;51614;-67
2022/07/10 14:14:24;;;;;;;;;2.00;2.00;;;;;;;;5051254;28;51108;-68
2022/07/10 14:16:51;;;;;;;;;2.00;2.00;;;;;;;;5063046;28;51081;-67
2022/07/10 14:19:16;;;;;;;;;5.67;3.33;;;;;;;;5061856;28;51263;-67
2022/07/10 14:21:41;;;;;;;;;1.00;1.00;;;;;;;;5053865;28;51204;-68
2022/07/10 14:24:07;;;;;;;;;1.00;1.00;;;;;;;;5033273;28;51124;-68
2022/07/10 14:26:35;;;;;;;;;2.33;2.00;;;;;;;;5057116;27;51325;-69
2022/07/10 14:29:01;;;;;;;;;1.00;1.00;;;;;;;;5072204;28;50898;-66
2022/07/10 14:31:26;;;;;;;;;1.00;1.00;;;;;;;;5056720;28;50911;-69
2022/07/10 14:33:52;;;;;;;;;0.00;0.00;;;;;;;;5054100;28;51256;-68
2022/07/10 14:36:17;;;;;;;;;1.33;1.33;;;;;;;;5071359;28;51129;-68
2022/07/10 14:38:42;;;;;;;;;1.33;1.33;;;;;;;;5059526;28;50821;-69
2022/07/10 14:41:08;;;;;;;;;2.00;2.00;;;;;;;;5062833;28;51999;-69
2022/07/10 14:43:36;;;;;;;;;1.33;1.33;;;;;;;;5056431;28;51091;-69
2022/07/10 14:46:03;;;;;;;;;1.00;1.00;;;;;;;;5068906;28;51242;-68
2022/07/10 14:48:30;;;;;;;;;1.00;1.00;;;;;;;;5060617;28;51224;-68
2022/07/10 14:50:57;;;;;;;;;1.00;1.00;;;;;;;;5061490;28;52609;-68
2022/07/10 14:53:23;;;;;;;;;0.00;0.00;;;;;;;;5062781;28;51087;-69